sensor_id;sensor_type;location;lat;lon;timestamp;P1;durP1;ratioP1;P2;durP2;ratioP2
14474;SDS011;7323;50.848;4.334;2022-07-23T00:00:00;17.90;;;16.00;;
14474;SDS011;7323;50.848;4.334;2022-07-23T00:02:26;19.80;;;17.13;;
14474;SDS011;7323;50.848;4.334;2022-07-23T00:04:54;19.97;;;16.73;;
14474;SDS011;7323;50.848;4.334;2022-07-23T00:07:20;18.13;;;16.17;;
14474;SDS011;7323;50.848;4.334;2022-07-23T00:09:46;17.83;;;15.50;;
14474;SDS011;7323;50.848;4.334;2022-07-23T00:12:11;18.20;;;16.37;;
14474;SDS011;7323;50.848;4.334;2022-07-23T00:14:37;18.70;;;16.77;;
14474;SDS011;7323;50.848;4.334;2022-07-23T00:17:03;19.13;;;16.63;;
14474;SDS011;7323;50.848;4.334;2022-07-23T00:19:28;19.37;;;17.13;;
14474;SDS011;7323;50.848;4.334;2022-07-23T00:21:55;19.80;;;17.30;;
14474;SDS011;7323;50.848;4.334;2022-07-23T00:24:21;18.87;;;16.37;;
14474;SDS011;7323;50.848;4.334;2022-07-23T00:26:46;20.90;;;17.07;;
14474;SDS011;7323;50.848;4.334;2022-07-23T00:29:12;19.20;;;17.30;;
14474;SDS011;7323;50.848;4.334;2022-07-23T00:31:38;19.83;;;17.93;;
14474;SDS011;7323;50.848;4.334;2022-07-23T00:34:03;20.40;;;18.30;;
14474;SDS011;7323;50.848;4.334;2022-07-23T00:36:29;21.77;;;17.73;;
14474;SDS011;7323;50.848;4.334;2022-07-23T00:38:56;18.70;;;16.90;;
14474;SDS011;7323;50.848;4.334;2022-07-23T00:41:22;20.17;;;17.80;;
14474;SDS011;7323;50.848;4.334;2022-07-23T00:43:48;21.93;;;18.20;;
14474;SDS011;7323;50.848;4.334;2022-07-23T00:46:19;21.37;;;18.03;;
14474;SDS011;7323;50.848;4.334;2022-07-23T00:48:48;18.83;;;17.03;;
14474;SDS011;7323;50.848;4.334;2022-07-23T00:51:18;19.67;;;17.63;;
14474;SDS011;7323;50.848;4.334;2022-07-23T00:53:44;21.30;;;17.90;;
14474;SDS011;7323;50.848;4.334;2022-07-23T00:56:10;20.13;;;18.03;;
14474;SDS011;7323;50.848;4.334;2022-07-23T00:58:36;20.43;;;18.17;;
14474;SDS011;7323;50.848;4.334;2022-07-23T01:01:05;19.93;;;17.57;;
14474;SDS011;7323;50.848;4.334;2022-07-23T01:03:30;19.83;;;17.93;;
14474;SDS011;7323;50.848;4.334;2022-07-23T01:05:56;21.47;;;18.13;;
14474;SDS011;7323;50.848;4.334;2022-07-23T01:08:23;19.23;;;16.93;;
14474;SDS011;7323;50.848;4.334;2022-07-23T01:10:49;19.90;;;17.90;;
14474;SDS011;7323;50.848;4.334;2022-07-23T01:13:16;20.13;;;18.13;;
14474;SDS011;7323;50.848;4.334;2022-07-23T01:15:42;20.97;;;18.77;;
14474;SDS011;7323;50.848;4.334;2022-07-23T01:18:08;19.77;;;17.87;;
14474;SDS011;7323;50.848;4.334;2022-07-23T01:20:37;19.53;;;16.30;;
14474;SDS011;7323;50.848;4.334;2022-07-23T01:23:03;19.70;;;17.60;;
14474;SDS011;7323;50.848;4.334;2022-07-23T01:25:30;19.37;;;17.27;;
14474;SDS011;7323;50.848;4.334;2022-07-23T01:27:58;19.77;;;17.47;;
14474;SDS011;7323;50.848;4.334;2022-07-23T01:30:24;20.73;;;18.47;;
14474;SDS011;7323;50.848;4.334;2022-07-23T01:32:49;20.47;;;17.07;;
14474;SDS011;7323;50.848;4.334;2022-07-23T01:35:15;22.07;;;18.33;;
14474;SDS011;7323;50.848;4.334;2022-07-23T01:37:42;19.43;;;17.27;;
14474;SDS011;7323;50.848;4.334;2022-07-23T01:40:08;19.23;;;17.23;;
14474;SDS011;7323;50.848;4.334;2022-07-23T01:42:34;20.17;;;16.70;;
14474;SDS011;7323;50.848;4.334;2022-07-23T01:45:01;20.47;;;18.37;;
14474;SDS011;7323;50.848;4.334;2022-07-23T01:47:27;23.10;;;18.00;;
14474;SDS011;7323;50.848;4.334;2022-07-23T01:49:53;19.57;;;17.60;;
14474;SDS011;7323;50.848;4.334;2022-07-23T01:52:18;19.57;;;17.47;;
14474;SDS011;7323;50.848;4.334;2022-07-23T01:54:44;19.73;;;17.83;;
14474;SDS011;7323;50.848;4.334;2022-07-23T01:57:10;19.30;;;16.83;;
14474;SDS011;7323;50.848;4.334;2022-07-23T01:59:40;19.37;;;16.73;;
14474;SDS011;7323;50.848;4.334;2022-07-23T02:02:06;19.23;;;17.23;;
14474;SDS011;7323;50.848;4.334;2022-07-23T02:04:35;21.60;;;17.53;;
14474;SDS011;7323;50.848;4.334;2022-07-23T02:12:40;19.37;;;16.77;;
14474;SDS011;7323;50.848;4.334;2022-07-23T02:15:06;20.37;;;18.20;;
14474;SDS011;7323;50.848;4.334;2022-07-23T02:17:32;19.20;;;17.07;;
14474;SDS011;7323;50.848;4.334;2022-07-23T02:19:58;19.37;;;17.37;;
14474;SDS011;7323;50.848;4.334;2022-07-23T02:22:23;19.77;;;16.87;;
14474;SDS011;7323;50.848;4.334;2022-07-23T02:24:49;20.07;;;18.00;;
14474;SDS011;7323;50.848;4.334;2022-07-23T02:27:16;19.83;;;17.53;;
14474;SDS011;7323;50.848;4.334;2022-07-23T02:29:41;18.90;;;16.90;;
14474;SDS011;7323;50.848;4.334;2022-07-23T02:32:10;19.40;;;17.40;;
14474;SDS011;7323;50.848;4.334;2022-07-23T02:34:46;21.80;;;18.40;;
14474;SDS011;7323;50.848;4.334;2022-07-23T02:39:41;20.63;;;18.53;;
14474;SDS011;7323;50.848;4.334;2022-07-23T02:42:07;20.77;;;18.20;;
14474;SDS011;7323;50.848;4.334;2022-07-23T02:47:03;20.03;;;17.77;;
14474;SDS011;7323;50.848;4.334;2022-07-23T02:49:36;20.40;;;17.73;;
14474;SDS011;7323;50.848;4.334;2022-07-23T02:52:07;21.00;;;17.30;;
14474;SDS011;7323;50.848;4.334;2022-07-23T02:54:36;20.07;;;17.60;;
14474;SDS011;7323;50.848;4.334;2022-07-23T02:57:02;20.57;;;17.40;;
14474;SDS011;7323;50.848;4.334;2022-07-23T02:59:29;19.50;;;16.17;;
14474;SDS011;7323;50.848;4.334;2022-07-23T03:01:55;18.87;;;16.53;;
14474;SDS011;7323;50.848;4.334;2022-07-23T03:04:20;18.83;;;16.93;;
14474;SDS011;7323;50.848;4.334;2022-07-23T03:06:46;18.97;;;17.07;;
14474;SDS011;7323;50.848;4.334;2022-07-23T03:09:13;19.40;;;17.27;;
14474;SDS011;7323;50.848;4.334;2022-07-23T03:11:39;18.77;;;16.60;;
14474;SDS011;7323;50.848;4.334;2022-07-23T03:14:04;17.57;;;15.73;;
14474;SDS011;7323;50.848;4.334;2022-07-23T03:16:31;19.03;;;17.07;;
14474;SDS011;7323;50.848;4.334;2022-07-23T03:18:57;20.50;;;16.20;;
14474;SDS011;7323;50.848;4.334;2022-07-23T03:21:24;20.67;;;17.93;;
14474;SDS011;7323;50.848;4.334;2022-07-23T03:23:50;19.37;;;16.70;;
14474;SDS011;7323;50.848;4.334;2022-07-23T03:26:16;18.30;;;16.40;;
14474;SDS011;7323;50.848;4.334;2022-07-23T03:28:41;19.50;;;16.93;;
14474;SDS011;7323;50.848;4.334;2022-07-23T03:31:07;18.07;;;16.37;;
14474;SDS011;7323;50.848;4.334;2022-07-23T03:33:33;19.50;;;16.73;;
14474;SDS011;7323;50.848;4.334;2022-07-23T03:35:59;17.80;;;15.50;;
14474;SDS011;7323;50.848;4.334;2022-07-23T03:40:54;18.27;;;16.43;;
14474;SDS011;7323;50.848;4.334;2022-07-23T03:43:19;18.20;;;15.93;;
14474;SDS011;7323;50.848;4.334;2022-07-23T03:45:45;19.73;;;17.73;;
14474;SDS011;7323;50.848;4.334;2022-07-23T03:48:11;18.23;;;16.33;;
14474;SDS011;7323;50.848;4.334;2022-07-23T03:50:36;19.57;;;17.03;;
14474;SDS011;7323;50.848;4.334;2022-07-23T03:53:02;18.20;;;16.17;;
14474;SDS011;7323;50.848;4.334;2022-07-23T03:55:28;18.53;;;16.43;;
14474;SDS011;7323;50.848;4.334;2022-07-23T03:57:54;18.67;;;16.77;;
14474;SDS011;7323;50.848;4.334;2022-07-23T04:00:19;19.70;;;17.60;;
14474;SDS011;7323;50.848;4.334;2022-07-23T04:02:45;19.00;;;16.97;;
14474;SDS011;7323;50.848;4.334;2022-07-23T04:05:11;20.57;;;17.40;;
14474;SDS011;7323;50.848;4.334;2022-07-23T04:07:36;19.30;;;17.30;;
14474;SDS011;7323;50.848;4.334;2022-07-23T04:10:02;22.13;;;18.13;;
14474;SDS011;7323;50.848;4.334;2022-07-23T04:12:28;20.73;;;17.30;;
14474;SDS011;7323;50.848;4.334;2022-07-23T04:14:55;20.17;;;17.93;;
14474;SDS011;7323;50.848;4.334;2022-07-23T04:17:22;22.33;;;18.67;;
14474;SDS011;7323;50.848;4.334;2022-07-23T04:19:47;20.33;;;17.07;;
14474;SDS011;7323;50.848;4.334;2022-07-23T04:22:13;19.03;;;17.03;;
14474;SDS011;7323;50.848;4.334;2022-07-23T04:24:39;20.20;;;16.93;;
14474;SDS011;7323;50.848;4.334;2022-07-23T04:27:04;18.97;;;16.97;;
14474;SDS011;7323;50.848;4.334;2022-07-23T04:29:30;18.23;;;16.33;;
14474;SDS011;7323;50.848;4.334;2022-07-23T04:31:57;18.83;;;15.33;;
14474;SDS011;7323;50.848;4.334;2022-07-23T04:34:23;18.30;;;15.97;;
14474;SDS011;7323;50.848;4.334;2022-07-23T04:36:51;17.43;;;15.63;;
14474;SDS011;7323;50.848;4.334;2022-07-23T04:39:17;16.90;;;15.17;;
14474;SDS011;7323;50.848;4.334;2022-07-23T04:41:43;16.33;;;14.50;;
14474;SDS011;7323;50.848;4.334;2022-07-23T04:44:09;17.73;;;15.13;;
14474;SDS011;7323;50.848;4.334;2022-07-23T04:46:34;17.90;;;16.00;;
14474;SDS011;7323;50.848;4.334;2022-07-23T04:49:01;16.07;;;14.37;;
14474;SDS011;7323;50.848;4.334;2022-07-23T04:51:27;18.70;;;15.80;;
14474;SDS011;7323;50.848;4.334;2022-07-23T04:53:54;16.30;;;14.47;;
14474;SDS011;7323;50.848;4.334;2022-07-23T04:56:20;18.53;;;15.73;;
14474;SDS011;7323;50.848;4.334;2022-07-23T04:58:48;17.43;;;15.23;;
14474;SDS011;7323;50.848;4.334;2022-07-23T05:01:14;16.97;;;15.17;;
14474;SDS011;7323;50.848;4.334;2022-07-23T05:03:40;19.83;;;15.70;;
14474;SDS011;7323;50.848;4.334;2022-07-23T05:06:06;16.10;;;14.50;;
14474;SDS011;7323;50.848;4.334;2022-07-23T05:08:31;16.43;;;14.73;;
14474;SDS011;7323;50.848;4.334;2022-07-23T05:10:58;16.20;;;14.50;;
14474;SDS011;7323;50.848;4.334;2022-07-23T05:13:26;16.20;;;14.57;;
14474;SDS011;7323;50.848;4.334;2022-07-23T05:15:51;16.50;;;14.73;;
14474;SDS011;7323;50.848;4.334;2022-07-23T05:18:20;16.17;;;14.47;;
14474;SDS011;7323;50.848;4.334;2022-07-23T05:20:46;17.27;;;15.37;;
14474;SDS011;7323;50.848;4.334;2022-07-23T05:23:11;16.17;;;14.47;;
14474;SDS011;7323;50.848;4.334;2022-07-23T05:25:37;16.33;;;14.20;;
14474;SDS011;7323;50.848;4.334;2022-07-23T05:28:03;16.63;;;14.87;;
14474;SDS011;7323;50.848;4.334;2022-07-23T05:30:29;18.67;;;15.53;;
14474;SDS011;7323;50.848;4.334;2022-07-23T05:33:08;16.80;;;14.07;;
14474;SDS011;7323;50.848;4.334;2022-07-23T05:35:34;18.97;;;15.57;;
14474;SDS011;7323;50.848;4.334;2022-07-23T05:38:00;17.43;;;15.67;;
14474;SDS011;7323;50.848;4.334;2022-07-23T05:40:25;19.93;;;15.53;;
14474;SDS011;7323;50.848;4.334;2022-07-23T05:42:51;17.63;;;15.70;;
14474;SDS011;7323;50.848;4.334;2022-07-23T05:45:17;17.10;;;15.27;;
14474;SDS011;7323;50.848;4.334;2022-07-23T05:47:47;17.77;;;15.67;;
14474;SDS011;7323;50.848;4.334;2022-07-23T05:50:19;21.97;;;15.63;;
14474;SDS011;7323;50.848;4.334;2022-07-23T05:52:48;17.30;;;15.43;;
14474;SDS011;7323;50.848;4.334;2022-07-23T05:58:01;19.37;;;17.27;;
14474;SDS011;7323;50.848;4.334;2022-07-23T06:00:29;18.90;;;16.90;;
14474;SDS011;7323;50.848;4.334;2022-07-23T06:02:55;17.97;;;15.03;;
14474;SDS011;7323;50.848;4.334;2022-07-23T06:05:21;18.23;;;16.17;;
14474;SDS011;7323;50.848;4.334;2022-07-23T06:07:46;16.93;;;15.07;;
14474;SDS011;7323;50.848;4.334;2022-07-23T06:10:12;15.90;;;14.30;;
14474;SDS011;7323;50.848;4.334;2022-07-23T06:12:38;15.90;;;14.30;;
14474;SDS011;7323;50.848;4.334;2022-07-23T06:15:06;17.97;;;15.27;;
14474;SDS011;7323;50.848;4.334;2022-07-23T06:17:32;16.27;;;14.57;;
14474;SDS011;7323;50.848;4.334;2022-07-23T06:19:58;16.33;;;14.63;;
14474;SDS011;7323;50.848;4.334;2022-07-23T06:22:23;16.73;;;14.93;;
14474;SDS011;7323;50.848;4.334;2022-07-23T06:24:49;17.00;;;15.30;;
14474;SDS011;7323;50.848;4.334;2022-07-23T06:27:17;19.93;;;15.43;;
14474;SDS011;7323;50.848;4.334;2022-07-23T06:29:43;19.77;;;14.70;;
14474;SDS011;7323;50.848;4.334;2022-07-23T06:32:09;17.60;;;14.77;;
14474;SDS011;7323;50.848;4.334;2022-07-23T06:34:35;14.77;;;13.23;;
14474;SDS011;7323;50.848;4.334;2022-07-23T06:37:00;15.33;;;13.73;;
14474;SDS011;7323;50.848;4.334;2022-07-23T06:39:27;16.20;;;13.93;;
14474;SDS011;7323;50.848;4.334;2022-07-23T06:41:59;16.80;;;14.40;;
14474;SDS011;7323;50.848;4.334;2022-07-23T06:44:26;18.40;;;14.63;;
14474;SDS011;7323;50.848;4.334;2022-07-23T06:46:52;17.00;;;14.50;;
14474;SDS011;7323;50.848;4.334;2022-07-23T06:49:18;15.83;;;14.07;;
14474;SDS011;7323;50.848;4.334;2022-07-23T06:51:45;16.07;;;13.67;;
14474;SDS011;7323;50.848;4.334;2022-07-23T06:54:10;15.43;;;13.90;;
14474;SDS011;7323;50.848;4.334;2022-07-23T06:56:36;16.03;;;13.90;;
14474;SDS011;7323;50.848;4.334;2022-07-23T06:59:02;15.37;;;12.90;;
14474;SDS011;7323;50.848;4.334;2022-07-23T07:01:28;15.90;;;14.10;;
14474;SDS011;7323;50.848;4.334;2022-07-23T07:03:54;15.37;;;13.77;;
14474;SDS011;7323;50.848;4.334;2022-07-23T07:06:19;16.07;;;13.80;;
14474;SDS011;7323;50.848;4.334;2022-07-23T07:08:45;20.67;;;14.30;;
14474;SDS011;7323;50.848;4.334;2022-07-23T07:11:11;15.53;;;13.93;;
14474;SDS011;7323;50.848;4.334;2022-07-23T07:13:37;16.90;;;14.00;;
14474;SDS011;7323;50.848;4.334;2022-07-23T07:16:03;15.00;;;12.97;;
14474;SDS011;7323;50.848;4.334;2022-07-23T07:18:29;15.03;;;13.00;;
14474;SDS011;7323;50.848;4.334;2022-07-23T07:20:55;15.10;;;12.77;;
14474;SDS011;7323;50.848;4.334;2022-07-23T07:23:22;15.27;;;12.87;;
14474;SDS011;7323;50.848;4.334;2022-07-23T07:25:48;16.87;;;11.97;;
14474;SDS011;7323;50.848;4.334;2022-07-23T07:28:14;13.43;;;12.03;;
14474;SDS011;7323;50.848;4.334;2022-07-23T07:30:39;15.33;;;13.13;;
14474;SDS011;7323;50.848;4.334;2022-07-23T07:33:05;14.27;;;12.30;;
14474;SDS011;7323;50.848;4.334;2022-07-23T07:35:31;13.67;;;12.10;;
14474;SDS011;7323;50.848;4.334;2022-07-23T07:37:57;15.07;;;12.70;;
14474;SDS011;7323;50.848;4.334;2022-07-23T07:40:25;14.60;;;12.53;;
14474;SDS011;7323;50.848;4.334;2022-07-23T07:42:52;14.23;;;12.73;;
14474;SDS011;7323;50.848;4.334;2022-07-23T07:45:21;13.03;;;11.67;;
14474;SDS011;7323;50.848;4.334;2022-07-23T07:47:48;13.73;;;12.13;;
14474;SDS011;7323;50.848;4.334;2022-07-23T07:50:14;17.07;;;12.77;;
14474;SDS011;7323;50.848;4.334;2022-07-23T07:52:40;13.30;;;11.90;;
14474;SDS011;7323;50.848;4.334;2022-07-23T07:57:36;14.00;;;12.60;;
14474;SDS011;7323;50.848;4.334;2022-07-23T08:00:03;15.33;;;11.33;;
14474;SDS011;7323;50.848;4.334;2022-07-23T08:02:39;13.83;;;12.37;;
14474;SDS011;7323;50.848;4.334;2022-07-23T08:05:08;14.37;;;11.30;;
14474;SDS011;7323;50.848;4.334;2022-07-23T08:07:35;16.57;;;13.03;;
14474;SDS011;7323;50.848;4.334;2022-07-23T08:10:00;13.57;;;10.97;;
14474;SDS011;7323;50.848;4.334;2022-07-23T08:12:37;14.10;;;10.90;;
14474;SDS011;7323;50.848;4.334;2022-07-23T08:15:04;13.30;;;10.87;;
14474;SDS011;7323;50.848;4.334;2022-07-23T08:17:31;14.23;;;11.27;;
14474;SDS011;7323;50.848;4.334;2022-07-23T08:19:57;14.80;;;11.20;;
14474;SDS011;7323;50.848;4.334;2022-07-23T08:22:25;13.20;;;11.60;;
14474;SDS011;7323;50.848;4.334;2022-07-23T08:25:06;12.80;;;10.90;;
14474;SDS011;7323;50.848;4.334;2022-07-23T08:27:32;14.00;;;11.70;;
14474;SDS011;7323;50.848;4.334;2022-07-23T08:29:58;14.13;;;11.23;;
14474;SDS011;7323;50.848;4.334;2022-07-23T08:32:24;14.00;;;12.50;;
14474;SDS011;7323;50.848;4.334;2022-07-23T08:34:49;14.77;;;11.77;;
14474;SDS011;7323;50.848;4.334;2022-07-23T08:37:15;13.80;;;11.87;;
14474;SDS011;7323;50.848;4.334;2022-07-23T08:39:40;12.57;;;10.67;;
14474;SDS011;7323;50.848;4.334;2022-07-23T08:42:07;13.00;;;11.63;;
14474;SDS011;7323;50.848;4.334;2022-07-23T08:44:34;12.30;;;11.10;;
14474;SDS011;7323;50.848;4.334;2022-07-23T08:49:29;14.13;;;10.30;;
14474;SDS011;7323;50.848;4.334;2022-07-23T08:51:55;14.03;;;11.03;;
14474;SDS011;7323;50.848;4.334;2022-07-23T08:54:22;11.60;;;10.37;;
14474;SDS011;7323;50.848;4.334;2022-07-23T08:56:48;14.13;;;11.17;;
14474;SDS011;7323;50.848;4.334;2022-07-23T08:59:14;12.40;;;10.10;;
14474;SDS011;7323;50.848;4.334;2022-07-23T09:01:40;12.00;;;10.20;;
14474;SDS011;7323;50.848;4.334;2022-07-23T09:04:06;13.20;;;10.47;;
14474;SDS011;7323;50.848;4.334;2022-07-23T09:06:32;14.03;;;10.03;;
14474;SDS011;7323;50.848;4.334;2022-07-23T09:12:06;10.73;;;9.60;;
14474;SDS011;7323;50.848;4.334;2022-07-23T09:14:41;12.03;;;10.03;;
14474;SDS011;7323;50.848;4.334;2022-07-23T09:17:12;12.47;;;9.90;;
14474;SDS011;7323;50.848;4.334;2022-07-23T09:19:40;11.93;;;8.80;;
14474;SDS011;7323;50.848;4.334;2022-07-23T09:22:18;11.40;;;9.37;;
14474;SDS011;7323;50.848;4.334;2022-07-23T09:25:09;11.43;;;10.20;;
14474;SDS011;7323;50.848;4.334;2022-07-23T09:30:21;12.57;;;9.77;;
14474;SDS011;7323;50.848;4.334;2022-07-23T09:33:04;10.10;;;8.80;;
14474;SDS011;7323;50.848;4.334;2022-07-23T09:38:33;10.43;;;8.97;;
14474;SDS011;7323;50.848;4.334;2022-07-23T09:41:08;10.80;;;9.57;;
14474;SDS011;7323;50.848;4.334;2022-07-23T09:43:35;10.17;;;9.13;;
14474;SDS011;7323;50.848;4.334;2022-07-23T09:48:50;11.83;;;9.63;;
14474;SDS011;7323;50.848;4.334;2022-07-23T09:51:18;11.17;;;9.70;;
14474;SDS011;7323;50.848;4.334;2022-07-23T09:54:02;11.37;;;8.47;;
14474;SDS011;7323;50.848;4.334;2022-07-23T09:56:28;11.80;;;9.87;;
14474;SDS011;7323;50.848;4.334;2022-07-23T09:58:55;11.10;;;9.30;;
14474;SDS011;7323;50.848;4.334;2022-07-23T10:01:35;10.27;;;8.90;;
14474;SDS011;7323;50.848;4.334;2022-07-23T10:04:01;10.97;;;8.97;;
14474;SDS011;7323;50.848;4.334;2022-07-23T10:06:27;10.70;;;8.70;;
14474;SDS011;7323;50.848;4.334;2022-07-23T10:08:54;11.27;;;8.73;;
14474;SDS011;7323;50.848;4.334;2022-07-23T10:11:24;10.53;;;8.90;;
14474;SDS011;7323;50.848;4.334;2022-07-23T10:13:53;9.87;;;8.40;;
14474;SDS011;7323;50.848;4.334;2022-07-23T10:16:21;9.13;;;8.23;;
14474;SDS011;7323;50.848;4.334;2022-07-23T10:18:50;9.30;;;8.03;;
14474;SDS011;7323;50.848;4.334;2022-07-23T10:22:00;10.50;;;7.93;;
14474;SDS011;7323;50.848;4.334;2022-07-23T10:32:26;8.50;;;6.53;;
14474;SDS011;7323;50.848;4.334;2022-07-23T10:35:19;8.03;;;6.87;;
14474;SDS011;7323;50.848;4.334;2022-07-23T10:37:54;8.00;;;7.20;;
14474;SDS011;7323;50.848;4.334;2022-07-23T10:40:32;9.70;;;7.07;;
14474;SDS011;7323;50.848;4.334;2022-07-23T10:42:59;10.67;;;7.20;;
14474;SDS011;7323;50.848;4.334;2022-07-23T10:48:15;11.87;;;7.97;;
14474;SDS011;7323;50.848;4.334;2022-07-23T10:50:42;8.53;;;7.37;;
14474;SDS011;7323;50.848;4.334;2022-07-23T10:53:10;9.00;;;8.07;;
14474;SDS011;7323;50.848;4.334;2022-07-23T10:55:48;8.67;;;7.77;;
14474;SDS011;7323;50.848;4.334;2022-07-23T10:58:45;9.47;;;7.97;;
14474;SDS011;7323;50.848;4.334;2022-07-23T11:04:03;10.63;;;7.57;;
14474;SDS011;7323;50.848;4.334;2022-07-23T11:09:40;10.17;;;7.80;;
14474;SDS011;7323;50.848;4.334;2022-07-23T11:17:24;9.37;;;8.37;;
14474;SDS011;7323;50.848;4.334;2022-07-23T11:20:35;8.77;;;7.03;;
14474;SDS011;7323;50.848;4.334;2022-07-23T11:22:47;9.83;;;7.13;;
14474;SDS011;7323;50.848;4.334;2022-07-23T11:27:47;8.37;;;7.33;;
14474;SDS011;7323;50.848;4.334;2022-07-23T11:32:51;9.97;;;7.63;;
14474;SDS011;7323;50.848;4.334;2022-07-23T11:35:19;9.00;;;7.87;;
14474;SDS011;7323;50.848;4.334;2022-07-23T11:40:15;8.93;;;7.63;;
14474;SDS011;7323;50.848;4.334;2022-07-23T11:42:58;9.80;;;8.10;;
14474;SDS011;7323;50.848;4.334;2022-07-23T11:45:41;8.87;;;7.07;;
14474;SDS011;7323;50.848;4.334;2022-07-23T11:48:16;9.23;;;7.30;;
14474;SDS011;7323;50.848;4.334;2022-07-23T11:50:42;9.43;;;8.37;;
14474;SDS011;7323;50.848;4.334;2022-07-23T11:53:08;8.90;;;7.57;;
14474;SDS011;7323;50.848;4.334;2022-07-23T11:55:33;8.50;;;6.83;;
14474;SDS011;7323;50.848;4.334;2022-07-23T11:57:59;8.97;;;7.80;;
14474;SDS011;7323;50.848;4.334;2022-07-23T12:00:26;8.40;;;7.23;;
14474;SDS011;7323;50.848;4.334;2022-07-23T12:02:55;8.67;;;7.37;;
14474;SDS011;7323;50.848;4.334;2022-07-23T12:05:28;9.97;;;8.47;;
14474;SDS011;7323;50.848;4.334;2022-07-23T12:07:57;9.70;;;8.70;;
14474;SDS011;7323;50.848;4.334;2022-07-23T12:10:28;9.57;;;8.40;;
14474;SDS011;7323;50.848;4.334;2022-07-23T12:13:05;11.00;;;7.47;;
14474;SDS011;7323;50.848;4.334;2022-07-23T12:15:39;10.50;;;7.03;;
14474;SDS011;7323;50.848;4.334;2022-07-23T12:18:09;9.43;;;8.50;;
14474;SDS011;7323;50.848;4.334;2022-07-23T12:20:41;8.97;;;7.87;;
14474;SDS011;7323;50.848;4.334;2022-07-23T12:23:09;9.23;;;8.07;;
14474;SDS011;7323;50.848;4.334;2022-07-23T12:25:38;9.50;;;7.37;;
14474;SDS011;7323;50.848;4.334;2022-07-23T12:28:16;9.80;;;7.00;;
14474;SDS011;7323;50.848;4.334;2022-07-23T12:30:49;8.07;;;6.27;;
14474;SDS011;7323;50.848;4.334;2022-07-23T12:33:23;8.77;;;5.87;;
14474;SDS011;7323;50.848;4.334;2022-07-23T12:35:49;7.60;;;6.17;;
14474;SDS011;7323;50.848;4.334;2022-07-23T12:38:18;9.57;;;6.77;;
14474;SDS011;7323;50.848;4.334;2022-07-23T12:40:50;12.07;;;7.57;;
14474;SDS011;7323;50.848;4.334;2022-07-23T12:43:25;7.77;;;6.47;;
14474;SDS011;7323;50.848;4.334;2022-07-23T12:45:56;7.03;;;6.33;;
14474;SDS011;7323;50.848;4.334;2022-07-23T12:48:37;10.50;;;5.33;;
14474;SDS011;7323;50.848;4.334;2022-07-23T12:51:15;8.10;;;6.03;;
14474;SDS011;7323;50.848;4.334;2022-07-23T12:53:49;6.73;;;5.13;;
14474;SDS011;7323;50.848;4.334;2022-07-23T12:56:20;7.03;;;4.73;;
14474;SDS011;7323;50.848;4.334;2022-07-23T12:58:48;4.83;;;4.30;;
14474;SDS011;7323;50.848;4.334;2022-07-23T13:06:32;6.07;;;4.77;;
14474;SDS011;7323;50.848;4.334;2022-07-23T13:09:02;6.27;;;5.47;;
14474;SDS011;7323;50.848;4.334;2022-07-23T13:11:32;6.97;;;5.13;;
14474;SDS011;7323;50.848;4.334;2022-07-23T13:13:58;6.43;;;4.47;;
14474;SDS011;7323;50.848;4.334;2022-07-23T13:16:27;6.60;;;4.40;;
14474;SDS011;7323;50.848;4.334;2022-07-23T13:18:55;5.83;;;4.17;;
14474;SDS011;7323;50.848;4.334;2022-07-23T13:24:26;5.43;;;4.20;;
14474;SDS011;7323;50.848;4.334;2022-07-23T13:26:52;11.15;;;4.95;;
14474;SDS011;7323;50.848;4.334;2022-07-23T13:29:20;5.35;;;4.55;;
14474;SDS011;7323;50.848;4.334;2022-07-23T13:31:45;6.25;;;4.82;;
14474;SDS011;7323;50.848;4.334;2022-07-23T13:34:12;7.97;;;4.65;;
14474;SDS011;7323;50.848;4.334;2022-07-23T13:36:38;4.45;;;3.78;;
14474;SDS011;7323;50.848;4.334;2022-07-23T13:39:07;5.65;;;3.78;;
14474;SDS011;7323;50.848;4.334;2022-07-23T13:41:37;7.68;;;4.38;;
14474;SDS011;7323;50.848;4.334;2022-07-23T13:44:04;4.75;;;4.25;;
14474;SDS011;7323;50.848;4.334;2022-07-23T13:46:30;7.60;;;4.03;;
14474;SDS011;7323;50.848;4.334;2022-07-23T13:48:55;5.65;;;4.03;;
14474;SDS011;7323;50.848;4.334;2022-07-23T13:51:21;5.75;;;4.90;;
14474;SDS011;7323;50.848;4.334;2022-07-23T13:53:49;5.30;;;4.67;;
14474;SDS011;7323;50.848;4.334;2022-07-23T13:56:14;7.03;;;4.70;;
14474;SDS011;7323;50.848;4.334;2022-07-23T13:58:40;5.67;;;4.30;;
14474;SDS011;7323;50.848;4.334;2022-07-23T14:01:06;6.23;;;4.40;;
14474;SDS011;7323;50.848;4.334;2022-07-23T14:03:32;6.00;;;4.47;;
14474;SDS011;7323;50.848;4.334;2022-07-23T14:05:58;5.87;;;3.90;;
14474;SDS011;7323;50.848;4.334;2022-07-23T14:08:24;7.50;;;4.00;;
14474;SDS011;7323;50.848;4.334;2022-07-23T14:10:50;5.40;;;4.00;;
14474;SDS011;7323;50.848;4.334;2022-07-23T14:13:15;5.87;;;4.00;;
14474;SDS011;7323;50.848;4.334;2022-07-23T14:15:41;6.28;;;4.10;;
14474;SDS011;7323;50.848;4.334;2022-07-23T14:18:07;5.83;;;3.93;;
14474;SDS011;7323;50.848;4.334;2022-07-23T14:20:33;6.03;;;4.60;;
14474;SDS011;7323;50.848;4.334;2022-07-23T14:22:59;4.90;;;3.87;;
14474;SDS011;7323;50.848;4.334;2022-07-23T14:25:25;6.17;;;3.80;;
14474;SDS011;7323;50.848;4.334;2022-07-23T14:27:51;4.85;;;4.10;;
14474;SDS011;7323;50.848;4.334;2022-07-23T14:30:18;4.10;;;3.67;;
14474;SDS011;7323;50.848;4.334;2022-07-23T14:32:44;7.70;;;4.00;;
14474;SDS011;7323;50.848;4.334;2022-07-23T14:35:10;5.83;;;3.93;;
14474;SDS011;7323;50.848;4.334;2022-07-23T14:37:35;5.38;;;4.22;;
14474;SDS011;7323;50.848;4.334;2022-07-23T14:40:01;5.90;;;4.38;;
14474;SDS011;7323;50.848;4.334;2022-07-23T14:42:27;8.52;;;4.70;;
14474;SDS011;7323;50.848;4.334;2022-07-23T14:44:53;4.82;;;4.10;;
14474;SDS011;7323;50.848;4.334;2022-07-23T14:47:20;5.93;;;4.53;;
14474;SDS011;7323;50.848;4.334;2022-07-23T14:52:15;6.93;;;4.35;;
14474;SDS011;7323;50.848;4.334;2022-07-23T14:54:41;4.90;;;4.32;;
14474;SDS011;7323;50.848;4.334;2022-07-23T14:57:07;5.28;;;4.30;;
14474;SDS011;7323;50.848;4.334;2022-07-23T14:59:35;6.65;;;4.55;;
14474;SDS011;7323;50.848;4.334;2022-07-23T15:02:01;5.20;;;4.70;;
14474;SDS011;7323;50.848;4.334;2022-07-23T15:04:26;7.55;;;4.75;;
14474;SDS011;7323;50.848;4.334;2022-07-23T15:06:52;5.20;;;4.68;;
14474;SDS011;7323;50.848;4.334;2022-07-23T15:09:18;5.13;;;4.20;;
14474;SDS011;7323;50.848;4.334;2022-07-23T15:11:44;5.22;;;4.70;;
14474;SDS011;7323;50.848;4.334;2022-07-23T15:14:10;4.60;;;4.20;;
14474;SDS011;7323;50.848;4.334;2022-07-23T15:16:36;5.15;;;4.47;;
14474;SDS011;7323;50.848;4.334;2022-07-23T15:19:02;6.80;;;4.50;;
14474;SDS011;7323;50.848;4.334;2022-07-23T15:21:29;6.03;;;4.20;;
14474;SDS011;7323;50.848;4.334;2022-07-23T15:23:58;5.57;;;4.72;;
14474;SDS011;7323;50.848;4.334;2022-07-23T15:26:27;7.35;;;4.28;;
14474;SDS011;7323;50.848;4.334;2022-07-23T15:28:54;5.22;;;4.70;;
14474;SDS011;7323;50.848;4.334;2022-07-23T15:31:20;6.73;;;4.80;;
14474;SDS011;7323;50.848;4.334;2022-07-23T15:33:46;6.95;;;4.50;;
14474;SDS011;7323;50.848;4.334;2022-07-23T15:36:12;5.97;;;4.47;;
14474;SDS011;7323;50.848;4.334;2022-07-23T15:38:38;5.35;;;4.75;;
14474;SDS011;7323;50.848;4.334;2022-07-23T15:41:04;5.65;;;4.30;;
14474;SDS011;7323;50.848;4.334;2022-07-23T15:43:30;5.35;;;4.43;;
14474;SDS011;7323;50.848;4.334;2022-07-23T15:45:56;6.65;;;4.38;;
14474;SDS011;7323;50.848;4.334;2022-07-23T15:48:27;5.70;;;4.47;;
14474;SDS011;7323;50.848;4.334;2022-07-23T15:50:56;7.03;;;4.60;;
14474;SDS011;7323;50.848;4.334;2022-07-23T15:53:22;8.20;;;4.53;;
14474;SDS011;7323;50.848;4.334;2022-07-23T15:55:47;6.60;;;4.63;;
14474;SDS011;7323;50.848;4.334;2022-07-23T15:58:14;5.60;;;4.38;;